Terminal Aerodrome Forecast
Issued by NWS

Home | Current Version | Previous Version | Text Only | Print | Product List | Glossary Off
Versions: 1 2 3 4 5 6 7 8 9 10 11 12 13 14 15 16 17 18 19 20 21 22 23 24 25

000
FTUS43 KLOT 231726
TAFGYY
TAF
KGYY 231726Z 2318/2418 36009KT P6SM SCT009 OVC015
      TEMPO 2318/2319 OVC009
     FM232100 01009KT P6SM OVC020
     FM240500 06008KT 6SM BR OVC015
     FM241500 09009KT P6SM BKN020=

USA.gov is the U.S. government's official web portal to all federal, state and local government web resources and services.